Time;durP1;ratioP1;P1;durP2;ratioP2;P2;SDS_P1;SDS_P2;PMS_P1;PMS_P2;Temp;Humidity;BMP_temperature;BMP_pressure;BME280_temperature;BME280_humidity;BME280_pressure;Samples;Min_cycle;Max_cycle;Signal;HPM_P1;HPM_P2
2023/04/28 00:00:50;;;;;;;3.90;1.40;;;19.90;99.90;;;;;;5082397;28;20230;-73
2023/04/28 00:03:21;;;;;;;4.80;1.30;;;20.00;99.90;;;;;;5092795;28;20203;-71
2023/04/28 00:05:54;;;;;;;3.10;1.23;;;20.10;99.90;;;;;;5081640;28;20582;-72
2023/04/28 00:08:26;;;;;;;3.13;1.33;;;20.20;99.90;;;;;;5080104;28;20352;-73
2023/04/28 00:10:57;;;;;;;3.30;1.20;;;20.40;99.90;;;;;;5082340;28;20655;-74
2023/04/28 00:13:30;;;;;;;2.78;1.10;;;20.50;99.90;;;;;;5087991;28;20671;-72
2023/04/28 00:16:01;;;;;;;6.15;1.27;;;20.60;99.90;;;;;;5084261;28;20219;-73
2023/04/28 00:18:32;;;;;;;2.67;1.30;;;20.70;99.90;;;;;;5079226;28;20191;-73
2023/04/28 00:21:03;;;;;;;4.95;1.10;;;20.80;99.90;;;;;;5087317;28;20196;-72
2023/04/28 00:23:34;;;;;;;2.72;1.00;;;21.00;99.90;;;;;;5081281;28;20196;-73
2023/04/28 00:26:05;;;;;;;3.05;1.10;;;21.10;99.90;;;;;;5086474;28;20221;-73
2023/04/28 00:28:38;;;;;;;6.07;1.95;;;21.20;99.90;;;;;;5079299;28;20200;-73
2023/04/28 00:31:14;;;;;;;2.83;1.00;;;21.30;99.90;;;;;;5088224;28;20204;-72
2023/04/28 00:33:46;;;;;;;2.00;0.90;;;21.50;99.90;;;;;;5090590;28;20204;-74
2023/04/28 00:36:17;;;;;;;2.83;1.02;;;21.50;99.90;;;;;;5090986;28;20204;-73
2023/04/28 00:38:48;;;;;;;3.70;1.23;;;21.70;99.90;;;;;;5084206;28;20192;-73
2023/04/28 00:41:19;;;;;;;6.97;1.35;;;21.80;99.90;;;;;;5074054;28;20193;-74
2023/04/28 00:43:54;;;;;;;4.15;1.05;;;21.90;99.90;;;;;;5078798;28;20204;-73
2023/04/28 00:46:30;;;;;;;3.55;0.98;;;22.00;99.90;;;;;;5091538;28;20212;-73
2023/04/28 00:49:02;;;;;;;2.42;1.08;;;22.10;99.90;;;;;;5093563;28;20253;-74
2023/04/28 00:51:33;;;;;;;4.20;1.00;;;22.20;99.90;;;;;;5093798;28;20192;-74
2023/04/28 00:54:04;;;;;;;2.75;1.00;;;22.30;99.90;;;;;;5093905;28;20192;-75
2023/04/28 00:56:35;;;;;;;4.78;1.13;;;22.40;99.90;;;;;;5093888;28;20207;-74
2023/04/28 00:59:08;;;;;;;3.22;1.10;;;22.40;99.90;;;;;;5093412;28;20199;-73
2023/04/28 01:01:39;;;;;;;1.70;0.90;;;22.50;99.90;;;;;;5087476;28;20604;-74
2023/04/28 01:04:10;;;;;;;4.60;0.90;;;22.60;99.90;;;;;;5073743;28;20367;-73
2023/04/28 01:06:43;;;;;;;3.17;0.80;;;22.70;99.90;;;;;;5093044;28;20188;-73
2023/04/28 01:09:14;;;;;;;3.08;0.80;;;22.70;99.90;;;;;;5093525;28;20224;-73
2023/04/28 01:11:45;;;;;;;3.58;1.10;;;22.90;99.90;;;;;;5093121;28;20197;-73
2023/04/28 01:14:18;;;;;;;3.05;0.93;;;23.00;99.90;;;;;;5093444;28;20192;-73
2023/04/28 01:16:50;;;;;;;1.90;0.95;;;23.10;99.90;;;;;;5094444;28;20195;-73
2023/04/28 01:19:23;;;;;;;2.72;0.95;;;23.30;99.90;;;;;;5086569;28;20188;-73
2023/04/28 01:21:54;;;;;;;2.33;0.80;;;23.40;99.90;;;;;;5087729;28;20700;-73
2023/04/28 01:24:27;;;;;;;2.90;0.70;;;23.60;99.90;;;;;;5093261;28;20193;-73
2023/04/28 01:26:58;;;;;;;3.45;0.95;;;23.70;99.90;;;;;;5072937;28;20193;-73
2023/04/28 01:29:30;;;;;;;3.20;0.80;;;23.80;99.90;;;;;;5073168;28;20201;-73
2023/04/28 01:32:01;;;;;;;3.85;0.85;;;23.90;99.90;;;;;;5091388;28;20195;-73
2023/04/28 01:34:32;;;;;;;2.38;1.00;;;24.00;99.90;;;;;;5093264;28;20541;-74
2023/04/28 01:37:03;;;;;;;2.15;1.20;;;24.10;99.90;;;;;;5093045;28;20214;-73
2023/04/28 01:39:36;;;;;;;2.15;0.73;;;24.20;99.90;;;;;;5078068;28;20850;-74
2023/04/28 01:42:07;;;;;;;2.97;0.98;;;24.30;99.90;;;;;;5092822;28;20563;-73
2023/04/28 01:44:38;;;;;;;3.53;0.77;;;24.40;99.90;;;;;;5081319;28;20213;-74
2023/04/28 01:47:09;;;;;;;3.58;0.77;;;24.50;99.90;;;;;;5093215;28;20196;-73
2023/04/28 01:49:40;;;;;;;1.52;0.80;;;24.60;99.90;;;;;;5093081;28;20204;-73
2023/04/28 01:52:11;;;;;;;3.53;0.90;;;24.80;99.90;;;;;;5092922;28;20188;-73
2023/04/28 01:54:44;;;;;;;2.20;0.80;;;24.90;99.90;;;;;;5095018;28;20647;-74
2023/04/28 01:57:15;;;;;;;1.65;0.70;;;25.00;99.90;;;;;;5096176;28;20181;-73
2023/04/28 01:59:46;;;;;;;2.13;0.80;;;25.10;99.90;;;;;;5096860;28;20208;-73
2023/04/28 02:02:17;;;;;;;2.47;0.80;;;25.20;99.90;;;;;;5073405;28;20232;-74
2023/04/28 02:04:48;;;;;;;2.15;0.80;;;25.30;99.90;;;;;;5085953;28;20199;-74
2023/04/28 02:07:19;;;;;;;2.10;0.68;;;25.30;99.90;;;;;;5093187;28;20235;-74
2023/04/28 02:09:52;;;;;;;0.85;0.65;;;25.50;99.90;;;;;;5092524;28;20275;-74
2023/04/28 02:12:23;;;;;;;2.45;0.68;;;25.60;99.90;;;;;;5094834;28;20191;-74
2023/04/28 02:14:55;;;;;;;1.00;0.60;;;25.70;99.90;;;;;;5112080;28;20203;-74
2023/04/28 02:17:26;;;;;;;1.02;0.60;;;25.80;99.90;;;;;;5094936;28;20193;-75
2023/04/28 02:19:58;;;;;;;1.73;0.50;;;25.90;99.90;;;;;;5092608;28;20654;-74
2023/04/28 02:22:29;;;;;;;2.30;0.73;;;26.00;99.90;;;;;;5093328;28;20196;-74
2023/04/28 02:25:02;;;;;;;1.17;0.50;;;26.00;99.90;;;;;;5091682;28;20223;-75
2023/04/28 02:27:33;;;;;;;1.40;0.50;;;26.10;99.90;;;;;;5077591;28;20227;-74
2023/04/28 02:30:05;;;;;;;1.35;0.63;;;26.20;99.90;;;;;;5074665;28;20197;-74
2023/04/28 02:32:36;;;;;;;2.33;0.70;;;26.20;99.90;;;;;;5098891;28;20204;-75
2023/04/28 02:35:07;;;;;;;2.03;0.70;;;26.20;99.90;;;;;;5095022;28;20556;-74
2023/04/28 02:37:38;;;;;;;1.15;0.52;;;26.30;99.90;;;;;;5096799;28;20188;-75
2023/04/28 02:40:13;;;;;;;1.10;0.60;;;26.30;99.90;;;;;;5097373;28;20220;-74
2023/04/28 02:42:44;;;;;;;1.50;0.55;;;26.40;99.90;;;;;;5116633;28;20187;-73
2023/04/28 02:45:15;;;;;;;1.90;0.70;;;26.40;99.90;;;;;;5110682;28;20207;-73
2023/04/28 02:47:46;;;;;;;1.77;0.60;;;26.40;99.90;;;;;;5096068;28;20544;-74
2023/04/28 02:50:17;;;;;;;2.10;0.70;;;26.40;99.90;;;;;;5096117;28;20198;-74
2023/04/28 02:52:48;;;;;;;1.13;0.80;;;26.40;99.90;;;;;;5095880;28;20314;-74
2023/04/28 02:55:23;;;;;;;2.38;0.88;;;26.40;99.90;;;;;;5096331;28;20204;-73
2023/04/28 02:57:54;;;;;;;4.55;1.50;;;26.50;99.90;;;;;;5093591;28;20284;-74
2023/04/28 03:00:25;;;;;;;1.75;0.70;;;26.50;99.90;;;;;;5082550;28;20216;-74
2023/04/28 03:02:56;;;;;;;1.40;0.50;;;26.50;99.90;;;;;;5095907;28;20236;-74
2023/04/28 03:05:27;;;;;;;1.58;0.60;;;26.50;99.90;;;;;;5095896;28;20216;-73
2023/04/28 03:07:58;;;;;;;0.93;0.60;;;26.50;99.90;;;;;;5095555;28;20589;-73
2023/04/28 03:10:31;;;;;;;2.85;0.80;;;26.50;99.90;;;;;;5095838;28;20238;-74
2023/04/28 03:13:02;;;;;;;1.70;0.50;;;26.50;99.90;;;;;;5095845;28;20188;-74
2023/04/28 03:15:33;;;;;;;2.70;0.70;;;26.50;99.90;;;;;;5092768;28;20192;-73
2023/04/28 03:18:05;;;;;;;3.53;0.50;;;26.60;99.90;;;;;;5095719;28;20204;-74
2023/04/28 03:20:36;;;;;;;3.25;0.82;;;26.60;99.90;;;;;;5095952;28;20180;-74
2023/04/28 03:23:07;;;;;;;1.13;0.50;;;26.60;99.90;;;;;;5095537;28;20188;-74
2023/04/28 03:25:40;;;;;;;1.60;0.80;;;26.60;99.90;;;;;;5095532;28;20578;-73
2023/04/28 03:28:11;;;;;;;1.90;0.93;;;26.70;99.90;;;;;;5093105;28;20201;-73
2023/04/28 03:30:42;;;;;;;2.00;0.90;;;26.60;99.90;;;;;;5091066;28;20700;-75
2023/04/28 03:33:13;;;;;;;1.58;0.90;;;26.60;99.90;;;;;;5095495;28;20555;-74
2023/04/28 03:35:44;;;;;;;0.50;0.50;;;26.60;99.90;;;;;;5095389;28;20632;-74
2023/04/28 03:38:15;;;;;;;2.38;0.77;;;26.60;99.90;;;;;;5095209;28;20193;-74
2023/04/28 03:40:48;;;;;;;1.27;0.60;;;26.60;99.90;;;;;;5092025;28;20293;-74
2023/04/28 03:43:19;;;;;;;1.00;0.55;;;26.60;99.90;;;;;;5095237;28;20219;-74
2023/04/28 03:45:51;;;;;;;1.35;0.98;;;26.60;99.90;;;;;;5094661;28;20240;-74
2023/04/28 03:48:22;;;;;;;1.27;0.60;;;26.60;99.90;;;;;;5095239;28;20678;-75
2023/04/28 03:50:53;;;;;;;2.08;0.70;;;26.70;99.90;;;;;;5094679;28;20200;-73
2023/04/28 03:53:24;;;;;;;1.25;0.60;;;26.70;99.90;;;;;;5095159;28;20203;-74
2023/04/28 03:55:57;;;;;;;0.88;0.65;;;26.60;99.90;;;;;;5094956;28;20193;-74
2023/04/28 03:58:28;;;;;;;2.05;0.70;;;26.70;99.90;;;;;;5087195;28;20398;-73
2023/04/28 04:00:59;;;;;;;1.40;0.50;;;26.70;99.90;;;;;;5094905;28;20208;-73
2023/04/28 04:03:30;;;;;;;2.75;1.00;;;26.70;99.90;;;;;;5094995;28;20195;-72
2023/04/28 04:06:02;;;;;;;1.13;0.60;;;26.70;99.90;;;;;;5094519;28;20200;-73
2023/04/28 04:08:33;;;;;;;3.65;0.95;;;26.70;99.90;;;;;;5076735;28;20225;-73
2023/04/28 04:11:06;;;;;;;3.13;0.63;;;26.70;99.90;;;;;;5078758;28;20188;-72
2023/04/28 04:13:37;;;;;;;1.48;0.73;;;26.60;99.90;;;;;;5094634;28;20562;-74
2023/04/28 04:16:09;;;;;;;3.58;0.63;;;26.60;99.90;;;;;;5094472;28;20546;-74
2023/04/28 04:18:40;;;;;;;1.77;0.85;;;26.50;99.90;;;;;;5094900;28;20189;-74
2023/04/28 04:21:11;;;;;;;4.00;1.20;;;26.60;99.90;;;;;;5094214;28;20185;-75
2023/04/28 04:23:42;;;;;;;3.80;0.80;;;26.60;99.90;;;;;;5094552;28;20192;-74
2023/04/28 04:26:15;;;;;;;1.02;0.68;;;26.60;99.90;;;;;;5083633;28;20220;-73
2023/04/28 04:28:46;;;;;;;1.45;0.60;;;26.60;99.90;;;;;;5074215;28;20193;-73
2023/04/28 04:31:18;;;;;;;1.27;0.80;;;26.60;99.90;;;;;;5094265;28;20211;-73
2023/04/28 04:33:49;;;;;;;1.10;0.70;;;26.60;99.90;;;;;;5094377;28;20201;-74
2023/04/28 04:36:20;;;;;;;2.20;0.63;;;26.60;99.90;;;;;;5091856;28;20195;-73
2023/04/28 04:38:51;;;;;;;1.20;0.68;;;26.60;99.90;;;;;;5077747;28;20250;-74
2023/04/28 04:41:24;;;;;;;1.55;0.60;;;26.50;99.90;;;;;;5079568;28;20191;-74
2023/04/28 04:43:55;;;;;;;1.70;0.60;;;26.40;99.90;;;;;;5094015;28;20636;-74
2023/04/28 04:46:27;;;;;;;2.35;0.70;;;26.40;99.90;;;;;;5093866;28;20576;-73
2023/04/28 04:48:58;;;;;;;1.50;0.60;;;26.40;99.90;;;;;;5093861;28;20652;-73
2023/04/28 04:51:29;;;;;;;4.13;0.70;;;26.50;99.90;;;;;;5093855;28;20694;-73
2023/04/28 04:54:00;;;;;;;1.75;0.70;;;26.50;99.90;;;;;;5091708;28;20572;-74
2023/04/28 04:56:33;;;;;;;2.85;0.70;;;26.40;99.90;;;;;;5092324;28;20682;-73
2023/04/28 04:59:04;;;;;;;1.55;0.57;;;26.40;99.90;;;;;;5093279;28;20563;-72
2023/04/28 05:01:35;;;;;;;1.80;0.65;;;26.40;99.90;;;;;;5093540;28;20228;-73
2023/04/28 05:04:06;;;;;;;3.45;0.80;;;26.40;99.90;;;;;;5074689;28;20212;-73
2023/04/28 05:06:37;;;;;;;1.92;0.65;;;26.40;99.90;;;;;;5079130;28;20219;-74
2023/04/28 05:09:08;;;;;;;2.88;0.70;;;26.40;99.90;;;;;;5093904;28;20192;-74
2023/04/28 05:11:41;;;;;;;3.78;1.10;;;26.30;99.90;;;;;;5093622;28;20195;-74
2023/04/28 05:14:13;;;;;;;0.75;0.60;;;26.20;99.90;;;;;;5093623;28;20722;-74
2023/04/28 05:16:44;;;;;;;2.20;0.60;;;26.10;99.90;;;;;;5093399;28;20188;-75
2023/04/28 05:19:15;;;;;;;2.28;0.60;;;26.00;99.90;;;;;;5091198;28;20188;-73
2023/04/28 05:21:47;;;;;;;1.23;0.60;;;25.90;99.90;;;;;;5088295;28;20203;-74
2023/04/28 05:24:20;;;;;;;1.60;0.80;;;25.90;99.90;;;;;;5093539;28;20592;-74
2023/04/28 05:26:54;;;;;;;1.05;0.50;;;25.90;99.90;;;;;;5093205;28;20690;-74
2023/04/28 05:29:25;;;;;;;1.33;0.60;;;26.00;99.90;;;;;;5093688;28;20188;-75
2023/04/28 05:31:56;;;;;;;2.15;0.70;;;26.00;99.90;;;;;;5093384;28;20558;-73
2023/04/28 05:34:27;;;;;;;1.63;0.60;;;26.00;99.90;;;;;;5091399;28;20189;-75
2023/04/28 05:36:58;;;;;;;2.42;0.77;;;26.00;99.90;;;;;;5080151;28;20200;-74
2023/04/28 05:39:30;;;;;;;0.98;0.70;;;26.10;99.90;;;;;;5093719;28;20196;-75
2023/04/28 05:42:03;;;;;;;1.48;0.80;;;26.10;99.90;;;;;;5093217;28;20188;-74
2023/04/28 05:44:34;;;;;;;3.35;0.80;;;26.10;99.90;;;;;;5093314;28;20188;-74
2023/04/28 05:47:05;;;;;;;4.60;0.98;;;26.10;99.90;;;;;;5092840;28;20223;-74
2023/04/28 05:49:36;;;;;;;3.78;1.20;;;26.10;99.90;;;;;;5094003;28;20188;-74
2023/04/28 05:52:28;;;;;;;3.10;0.80;;;26.00;99.90;;;;;;5085544;28;20215;-74
2023/04/28 05:54:59;;;;;;;4.82;1.10;;;25.90;99.90;;;;;;5093517;28;20540;-74
2023/04/28 05:57:32;;;;;;;3.35;1.23;;;25.80;99.90;;;;;;5092935;28;20564;-74
2023/04/28 06:00:03;;;;;;;6.22;1.20;;;25.70;99.90;;;;;;5093115;28;20564;-74
2023/04/28 06:02:34;;;;;;;2.47;1.10;;;25.60;99.90;;;;;;5092566;28;20701;-74
2023/04/28 06:05:06;;;;;;;2.40;0.98;;;25.50;99.90;;;;;;5093106;28;20193;-74
2023/04/28 06:07:37;;;;;;;2.30;1.05;;;25.50;99.90;;;;;;5092764;28;20412;-74
2023/04/28 06:10:08;;;;;;;2.90;1.20;;;25.50;99.90;;;;;;5093240;28;20238;-74
2023/04/28 06:12:41;;;;;;;3.70;1.30;;;25.40;99.90;;;;;;5097024;28;20267;-74
2023/04/28 06:15:13;;;;;;;6.13;1.23;;;25.30;99.90;;;;;;5097036;28;20188;-75
2023/04/28 06:17:44;;;;;;;2.38;1.13;;;25.30;99.90;;;;;;5088745;28;20192;-74
2023/04/28 06:20:16;;;;;;;7.45;1.38;;;25.20;99.90;;;;;;5076646;28;20200;-74
2023/04/28 06:22:47;;;;;;;4.07;1.10;;;25.10;99.90;;;;;;5087897;28;20189;-74
2023/04/28 06:25:18;;;;;;;6.40;1.20;;;25.10;99.90;;;;;;5096929;28;20192;-74
2023/04/28 06:27:51;;;;;;;5.93;1.35;;;25.00;99.90;;;;;;5096595;28;20216;-75
2023/04/28 06:30:23;;;;;;;3.58;1.30;;;25.00;99.90;;;;;;5096630;28;20192;-74
2023/04/28 06:32:56;;;;;;;3.35;1.35;;;24.80;99.90;;;;;;5096617;28;20188;-75
2023/04/28 06:35:27;;;;;;;4.35;1.30;;;24.80;99.90;;;;;;5098624;28;20180;-74
2023/04/28 06:37:58;;;;;;;5.50;1.50;;;24.70;99.90;;;;;;5086001;28;20209;-75
2023/04/28 06:40:34;;;;;;;4.07;1.33;;;24.60;99.90;;;;;;5092129;28;20205;-75
2023/04/28 06:43:08;;;;;;;5.45;1.45;;;24.50;99.90;;;;;;5096678;28;20669;-75
2023/04/28 06:45:40;;;;;;;3.45;1.33;;;24.40;99.90;;;;;;5090018;28;20661;-75
2023/04/28 06:48:11;;;;;;;3.50;1.30;;;24.30;99.90;;;;;;5082608;28;20224;-74
2023/04/28 06:50:42;;;;;;;6.32;1.48;;;24.10;99.90;;;;;;5089797;28;20205;-75
2023/04/28 06:53:13;;;;;;;4.28;1.20;;;24.10;99.90;;;;;;5086611;28;20644;-75
2023/04/28 06:55:44;;;;;;;5.38;1.27;;;24.00;99.90;;;;;;5080364;28;20203;-74
2023/04/28 06:58:17;;;;;;;5.20;1.60;;;23.80;99.90;;;;;;5082353;28;20193;-74
2023/04/28 07:00:49;;;;;;;4.18;1.40;;;23.80;99.90;;;;;;5092085;28;20655;-74
2023/04/28 07:03:20;;;;;;;6.00;1.45;;;23.70;99.90;;;;;;5094080;28;20551;-75
2023/04/28 07:05:51;;;;;;;4.90;1.33;;;23.60;99.90;;;;;;5088589;28;20204;-74
2023/04/28 07:08:22;;;;;;;3.35;1.10;;;23.50;99.90;;;;;;5102172;28;20315;-74
2023/04/28 07:10:53;;;;;;;4.10;1.52;;;23.40;99.90;;;;;;5095608;28;20192;-74
2023/04/28 07:13:26;;;;;;;3.72;1.50;;;23.40;99.90;;;;;;5097537;28;20203;-75
2023/04/28 07:16:03;;;;;;;5.90;1.33;;;23.30;99.90;;;;;;5087840;28;20196;-75
2023/04/28 07:18:34;;;;;;;3.75;1.35;;;23.30;99.90;;;;;;5089982;28;20200;-74
2023/04/28 07:21:06;;;;;;;5.65;1.23;;;23.20;99.90;;;;;;5093772;28;20206;-74
2023/04/28 07:23:37;;;;;;;9.70;2.20;;;23.10;99.90;;;;;;5095455;28;20192;-74
2023/04/28 07:26:08;;;;;;;2.92;1.23;;;23.00;99.90;;;;;;5109845;28;20192;-75
2023/04/28 07:28:41;;;;;;;4.32;1.17;;;23.00;99.90;;;;;;5084853;28;20200;-74
2023/04/28 07:31:12;;;;;;;7.43;1.60;;;22.90;99.90;;;;;;5115501;28;20187;-74
2023/04/28 07:33:44;;;;;;;4.68;1.42;;;22.90;99.90;;;;;;5100572;28;20188;-74
2023/04/28 07:36:15;;;;;;;5.10;1.33;;;22.80;99.90;;;;;;5095580;28;20195;-75
2023/04/28 07:38:46;;;;;;;4.35;1.65;;;22.80;99.90;;;;;;5095627;28;20192;-75
2023/04/28 07:41:18;;;;;;;6.35;1.70;;;22.70;99.90;;;;;;5087917;28;21511;-74
2023/04/28 07:43:51;;;;;;;4.57;1.30;;;22.70;99.90;;;;;;5088703;28;20188;-74
2023/04/28 07:46:22;;;;;;;5.85;1.48;;;22.60;99.90;;;;;;5078905;28;20193;-75
2023/04/28 07:48:53;;;;;;;2.45;1.50;;;22.60;99.90;;;;;;5086675;28;21588;-74
2023/04/28 07:51:24;;;;;;;6.07;1.60;;;22.50;99.90;;;;;;5074819;28;20189;-74
2023/04/28 07:53:56;;;;;;;9.25;1.73;;;22.50;99.90;;;;;;5090499;28;20527;-74
2023/04/28 07:56:27;;;;;;;6.18;1.92;;;22.40;99.90;;;;;;5093580;28;20180;-75
2023/04/28 07:59:00;;;;;;;5.45;1.88;;;22.40;99.90;;;;;;5087045;28;20200;-74
2023/04/28 08:01:31;;;;;;;8.68;2.30;;;22.30;99.90;;;;;;5085518;28;20239;-74
2023/04/28 08:04:02;;;;;;;8.63;2.67;;;22.30;99.90;;;;;;5088192;28;20207;-74
2023/04/28 08:06:35;;;;;;;6.32;2.72;;;22.30;99.90;;;;;;5094519;28;20220;-74
2023/04/28 08:09:06;;;;;;;7.68;2.50;;;22.20;99.90;;;;;;5092017;28;20181;-74
2023/04/28 08:11:38;;;;;;;4.50;2.00;;;22.20;99.90;;;;;;5093041;28;20192;-75
2023/04/28 08:14:11;;;;;;;6.40;1.80;;;22.20;99.90;;;;;;5094398;28;20200;-74
2023/04/28 08:16:42;;;;;;;8.68;2.05;;;22.10;99.90;;;;;;5077260;28;20201;-74
2023/04/28 08:19:13;;;;;;;4.65;1.80;;;22.10;99.90;;;;;;5088288;28;20656;-74
2023/04/28 08:21:44;;;;;;;6.75;1.80;;;22.10;99.90;;;;;;5089632;28;20652;-74
2023/04/28 08:24:15;;;;;;;6.28;2.00;;;22.00;99.90;;;;;;5091002;28;20561;-74
2023/04/28 08:26:46;;;;;;;6.82;1.60;;;22.00;99.90;;;;;;5088092;28;20204;-74
2023/04/28 08:29:19;;;;;;;4.68;1.50;;;22.00;99.90;;;;;;5085100;28;20192;-74
2023/04/28 08:31:50;;;;;;;5.75;1.77;;;21.90;99.90;;;;;;5077937;28;20197;-74
2023/04/28 08:34:24;;;;;;;5.60;1.50;;;21.90;99.90;;;;;;5084584;28;20200;-74
2023/04/28 08:36:57;;;;;;;4.22;1.80;;;21.90;99.90;;;;;;5087917;28;20199;-74
2023/04/28 08:39:30;;;;;;;4.72;1.60;;;21.90;99.90;;;;;;5092597;28;20246;-74
2023/04/28 08:42:01;;;;;;;4.45;1.70;;;21.90;99.90;;;;;;5080140;28;20212;-74
2023/04/28 08:44:40;;;;;;;4.65;2.10;;;21.80;99.90;;;;;;5074959;28;20196;-74
2023/04/28 08:47:15;;;;;;;4.63;1.85;;;21.80;99.90;;;;;;5090448;28;20227;-74
2023/04/28 08:52:33;;;;;;;8.80;1.98;;;21.70;99.90;;;;;;5089343;28;20588;-74
2023/04/28 08:55:08;;;;;;;7.43;1.90;;;21.70;99.90;;;;;;5090587;28;20200;-74
2023/04/28 08:57:41;;;;;;;5.50;2.28;;;21.60;99.90;;;;;;5082146;28;20195;-74
2023/04/28 09:00:15;;;;;;;6.95;1.98;;;21.60;99.90;;;;;;5082527;28;20227;-75
2023/04/28 09:02:47;;;;;;;7.35;1.90;;;21.60;99.90;;;;;;5086150;28;20724;-74
2023/04/28 09:05:18;;;;;;;5.72;2.25;;;21.60;99.90;;;;;;5087331;28;20187;-74
2023/04/28 09:07:50;;;;;;;3.90;1.70;;;21.60;99.90;;;;;;5082640;28;20716;-74
2023/04/28 09:10:23;;;;;;;8.65;2.38;;;21.60;99.90;;;;;;5084353;28;20207;-74
2023/04/28 09:12:56;;;;;;;5.07;1.92;;;21.50;99.90;;;;;;5094858;28;20211;-74
2023/04/28 09:15:34;;;;;;;5.78;2.28;;;21.60;99.90;;;;;;5089534;28;20255;-74
2023/04/28 09:18:07;;;;;;;5.20;2.00;;;21.50;99.90;;;;;;5088425;28;20202;-74
2023/04/28 09:20:38;;;;;;;4.22;1.70;;;21.50;99.90;;;;;;5081878;28;20257;-74
2023/04/28 09:23:19;;;;;;;3.88;1.90;;;21.50;99.90;;;;;;5084810;28;20192;-74
2023/04/28 09:26:04;;;;;;;5.28;1.92;;;21.50;99.90;;;;;;5092824;28;20249;-75
2023/04/28 09:28:35;;;;;;;5.13;1.83;;;21.50;99.90;;;;;;5078926;28;20223;-74
2023/04/28 09:31:08;;;;;;;5.63;1.85;;;21.50;99.90;;;;;;5084627;28;20885;-74
2023/04/28 09:33:40;;;;;;;7.70;2.00;;;21.50;99.90;;;;;;5093584;28;20215;-74
2023/04/28 09:36:11;;;;;;;7.50;1.63;;;21.50;99.90;;;;;;5092065;28;20199;-74
2023/04/28 09:38:47;;;;;;;2.72;1.30;;;21.50;99.90;;;;;;5083757;28;20308;-74
2023/04/28 09:41:18;;;;;;;5.68;1.55;;;21.50;99.90;;;;;;5078661;28;20592;-74
2023/04/28 09:43:49;;;;;;;5.00;1.30;;;21.50;99.90;;;;;;5095099;28;20655;-74
2023/04/28 09:46:31;;;;;;;2.97;1.10;;;21.50;99.90;;;;;;5097412;28;20577;-74
2023/04/28 09:49:05;;;;;;;4.18;1.27;;;21.40;99.90;;;;;;5097121;28;20219;-74
2023/04/28 09:51:39;;;;;;;5.03;1.48;;;21.40;99.90;;;;;;5097301;28;20196;-74
2023/04/28 09:54:10;;;;;;;7.63;1.50;;;21.40;99.90;;;;;;5092687;28;20208;-74
2023/04/28 09:56:45;;;;;;;4.95;1.73;;;21.40;99.90;;;;;;5098283;28;20272;-74
2023/04/28 09:59:16;;;;;;;4.60;1.40;;;21.40;99.90;;;;;;5096886;28;20203;-74
2023/04/28 10:01:50;;;;;;;3.13;1.40;;;21.30;99.90;;;;;;5091936;28;20715;-74
2023/04/28 10:04:22;;;;;;;3.38;1.23;;;21.30;99.90;;;;;;5086996;28;20207;-74
2023/04/28 10:06:53;;;;;;;4.75;1.60;;;21.30;99.90;;;;;;5097118;28;20219;-75
2023/04/28 10:09:25;;;;;;;2.70;1.17;;;21.30;99.90;;;;;;5088702;28;20216;-74
2023/04/28 10:11:56;;;;;;;3.60;1.48;;;21.30;99.90;;;;;;5096183;28;20292;-74
2023/04/28 10:14:27;;;;;;;3.53;1.23;;;21.30;99.90;;;;;;5094046;28;20197;-74
2023/04/28 10:17:03;;;;;;;3.50;1.40;;;21.30;99.90;;;;;;5096737;28;20196;-74
2023/04/28 10:19:34;;;;;;;4.22;1.40;;;21.20;99.90;;;;;;5096642;28;20200;-75
2023/04/28 10:22:21;;;;;;;2.47;1.38;;;21.30;99.90;;;;;;5090180;28;20555;-76
2023/04/28 10:25:08;;;;;;;2.90;1.30;;;21.30;99.90;;;;;;5096274;28;20729;-75
2023/04/28 10:27:41;;;;;;;3.95;1.42;;;21.30;99.90;;;;;;5095627;28;20204;-74
2023/04/28 10:30:16;;;;;;;4.47;1.55;;;21.30;99.90;;;;;;5095381;28;20196;-75
2023/04/28 10:32:50;;;;;;;2.40;1.30;;;21.30;99.90;;;;;;5096595;28;20191;-74
2023/04/28 10:35:46;;;;;;;2.47;1.27;;;21.30;99.90;;;;;;5096231;28;20192;-75
2023/04/28 10:38:18;;;;;;;3.05;1.20;;;21.20;99.90;;;;;;5094899;28;20585;-75
2023/04/28 10:40:49;;;;;;;4.32;1.33;;;21.30;99.90;;;;;;5090290;28;20207;-74
2023/04/28 10:43:39;;;;;;;4.57;1.33;;;21.20;99.90;;;;;;5082890;28;20196;-74
2023/04/28 10:46:11;;;;;;;1.40;1.10;;;21.30;99.90;;;;;;5092919;28;20204;-75
2023/04/28 10:49:01;;;;;;;2.03;1.10;;;21.30;99.90;;;;;;5100255;28;20235;-74
2023/04/28 10:51:38;;;;;;;4.57;1.42;;;21.30;99.90;;;;;;5083326;28;20214;-75
2023/04/28 10:54:27;;;;;;;4.28;1.30;;;21.30;99.90;;;;;;5088980;28;20208;-74
2023/04/28 10:57:25;;;;;;;3.67;1.27;;;21.30;99.90;;;;;;5096143;28;20269;-74
2023/04/28 11:00:31;;;;;;;3.25;1.10;;;21.20;99.90;;;;;;5085592;28;20193;-75
2023/04/28 11:03:02;;;;;;;3.53;1.08;;;21.20;99.90;;;;;;5084745;28;20980;-74
2023/04/28 11:05:35;;;;;;;2.15;1.10;;;21.20;99.90;;;;;;5084663;28;20199;-75
2023/04/28 11:08:35;;;;;;;3.72;1.13;;;21.20;99.90;;;;;;5092287;28;20232;-74
2023/04/28 11:11:17;;;;;;;2.50;1.20;;;21.20;99.90;;;;;;5083095;28;20197;-74
2023/04/28 11:13:48;;;;;;;2.75;1.10;;;21.10;99.90;;;;;;5080571;28;20742;-74
2023/04/28 11:16:21;;;;;;;1.35;1.00;;;21.10;99.90;;;;;;5088252;28;20644;-74
2023/04/28 11:18:57;;;;;;;2.58;1.20;;;21.00;99.90;;;;;;5087546;28;20207;-75
2023/04/28 11:21:30;;;;;;;3.03;1.10;;;21.00;99.90;;;;;;5094080;28;20203;-74
2023/04/28 11:24:02;;;;;;;3.67;1.38;;;21.00;99.90;;;;;;5085280;28;20559;-75
2023/04/28 11:26:38;;;;;;;3.00;1.20;;;20.90;99.90;;;;;;5085918;28;20200;-74
2023/04/28 11:29:10;;;;;;;1.88;1.30;;;20.90;99.90;;;;;;5085439;28;20246;-75
2023/04/28 11:31:43;;;;;;;2.97;0.95;;;20.90;99.90;;;;;;5091158;28;20196;-75
2023/04/28 11:34:15;;;;;;;1.60;1.10;;;20.80;99.90;;;;;;5094559;28;20195;-74
2023/04/28 11:36:48;;;;;;;2.17;1.13;;;20.80;99.90;;;;;;5088309;28;20246;-74
2023/04/28 11:39:27;;;;;;;2.38;1.30;;;20.80;99.90;;;;;;5098881;28;20195;-75
2023/04/28 11:41:59;;;;;;;3.15;1.17;;;20.80;99.90;;;;;;5101783;28;20192;-75
2023/04/28 11:44:33;;;;;;;2.17;1.08;;;20.80;99.90;;;;;;5086355;28;20660;-74
2023/04/28 11:47:05;;;;;;;2.35;1.10;;;20.80;99.90;;;;;;5095353;28;20191;-75
2023/04/28 11:49:44;;;;;;;2.92;0.90;;;20.80;99.90;;;;;;5094907;28;20683;-74
2023/04/28 11:52:17;;;;;;;1.92;1.00;;;20.80;99.90;;;;;;5095199;28;20199;-74
2023/04/28 11:54:54;;;;;;;1.60;0.93;;;20.70;99.90;;;;;;5094989;28;20189;-74
2023/04/28 11:57:25;;;;;;;2.05;0.90;;;20.80;99.90;;;;;;5090775;28;20185;-74
2023/04/28 12:00:13;;;;;;;3.13;0.93;;;20.70;99.90;;;;;;5081929;28;20279;-74
2023/04/28 12:02:44;;;;;;;1.83;0.90;;;20.80;99.90;;;;;;5074584;28;20232;-75
2023/04/28 12:05:15;;;;;;;2.65;0.90;;;20.70;99.90;;;;;;5087343;28;20271;-75
2023/04/28 12:07:48;;;;;;;2.20;0.85;;;20.70;99.90;;;;;;5084246;28;20224;-75
2023/04/28 12:10:20;;;;;;;3.85;1.13;;;20.70;99.90;;;;;;5090999;28;20196;-74
2023/04/28 12:12:53;;;;;;;3.03;0.93;;;20.70;99.90;;;;;;5089262;28;20560;-74
2023/04/28 12:15:24;;;;;;;1.48;0.82;;;20.70;99.90;;;;;;5088646;28;20209;-74
2023/04/28 12:17:55;;;;;;;1.63;0.88;;;20.60;99.90;;;;;;5094012;28;20200;-74
2023/04/28 12:20:40;;;;;;;1.27;0.80;;;20.60;99.90;;;;;;5087795;28;20195;-74
2023/04/28 12:23:13;;;;;;;1.75;0.80;;;20.60;99.90;;;;;;5093633;28;20196;-74
2023/04/28 12:25:50;;;;;;;1.60;0.80;;;20.60;99.90;;;;;;5090629;28;20207;-75
2023/04/28 12:28:21;;;;;;;3.00;1.00;;;20.60;99.90;;;;;;5094090;28;20223;-75
2023/04/28 12:30:54;;;;;;;1.10;0.80;;;20.50;99.90;;;;;;5095161;28;20192;-74
2023/04/28 12:33:27;;;;;;;5.60;0.90;;;20.50;99.90;;;;;;5074889;28;20584;-74
2023/04/28 12:35:59;;;;;;;3.85;0.85;;;20.50;99.90;;;;;;5086263;28;20193;-74
2023/04/28 12:38:32;;;;;;;2.00;0.80;;;20.50;99.90;;;;;;5094163;28;20188;-74
2023/04/28 12:41:02;;;;;;;3.60;0.90;;;20.50;99.90;;;;;;5081370;28;20675;-74
2023/04/28 12:43:33;;;;;;;4.20;0.90;;;20.40;99.90;;;;;;5074127;28;20189;-74
2023/04/28 12:46:04;;;;;;;1.65;0.85;;;20.40;99.90;;;;;;5091219;28;20184;-74
2023/04/28 12:48:35;;;;;;;3.90;1.00;;;20.40;99.90;;;;;;5093980;28;20556;-75
2023/04/28 12:51:06;;;;;;;5.65;1.00;;;20.30;99.90;;;;;;5087582;28;20200;-74
2023/04/28 12:53:38;;;;;;;1.80;0.80;;;20.30;99.90;;;;;;5109064;28;20206;-75
2023/04/28 12:56:09;;;;;;;2.83;0.80;;;20.30;99.90;;;;;;5099371;28;20582;-74
2023/04/28 12:58:40;;;;;;;3.25;1.08;;;20.30;99.90;;;;;;5100456;28;20642;-74
2023/04/28 13:01:10;;;;;;;2.78;0.82;;;20.20;99.90;;;;;;5100055;28;20698;-74
2023/04/28 13:03:42;;;;;;;1.13;0.80;;;20.30;99.90;;;;;;5093735;28;20203;-74
2023/04/28 13:06:13;;;;;;;1.17;1.00;;;20.30;99.90;;;;;;5093894;28;20299;-74
2023/04/28 13:08:46;;;;;;;4.00;0.90;;;20.30;99.90;;;;;;5082954;28;20592;-74
2023/04/28 13:11:16;;;;;;;1.50;0.80;;;20.20;99.90;;;;;;5076181;28;20201;-74
2023/04/28 13:13:47;;;;;;;0.82;0.80;;;20.20;99.90;;;;;;5108278;28;20274;-75
2023/04/28 13:16:19;;;;;;;2.42;0.90;;;20.20;99.90;;;;;;5094771;28;20184;-75
2023/04/28 13:18:50;;;;;;;3.25;1.00;;;20.20;99.90;;;;;;5091786;28;20188;-74